createdAt,value
2018-01-05T00:02:38.449Z,1.60
2018-01-05T00:05:20.921Z,1.70
2018-01-05T00:08:03.841Z,1.67
2018-01-05T00:10:51.849Z,1.90
2018-01-05T00:13:41.570Z,1.77
2018-01-05T00:16:24.325Z,1.47
2018-01-05T00:19:06.846Z,1.93
2018-01-05T00:21:49.715Z,1.43
2018-01-05T00:24:32.234Z,1.50
2018-01-05T00:27:17.948Z,1.23
2018-01-05T00:30:00.457Z,1.60
2018-01-05T00:32:43.081Z,1.40
2018-01-05T00:35:25.685Z,1.47
2018-01-05T00:38:08.354Z,1.43
2018-01-05T00:40:51.213Z,1.33
2018-01-05T00:43:33.586Z,1.20
2018-01-05T00:46:16.683Z,1.20
2018-01-05T00:49:05.807Z,1.40
2018-01-05T00:51:49.067Z,1.20
2018-01-05T00:54:31.952Z,1.30
2018-01-05T00:57:15.711Z,1.10
2018-01-05T00:59:58.545Z,1.13
2018-01-05T01:02:41.254Z,1.10
2018-01-05T01:05:24.469Z,1.00
2018-01-05T01:08:08.898Z,1.30
2018-01-05T01:10:51.723Z,1.03
2018-01-05T01:13:34.289Z,1.30
2018-01-05T01:16:16.981Z,1.47
2018-01-05T01:19:00.433Z,1.10
2018-01-05T01:21:43.305Z,1.20
2018-01-05T01:24:25.855Z,1.30
2018-01-05T01:27:09.486Z,1.13
2018-01-05T01:29:53.608Z,1.10
2018-01-05T01:32:36.157Z,1.17
2018-01-05T01:35:19.849Z,1.20
2018-01-05T01:38:02.762Z,0.90
2018-01-05T01:40:45.361Z,1.07
2018-01-05T01:43:28.013Z,1.17
2018-01-05T01:46:10.868Z,1.20
2018-01-05T01:48:53.445Z,1.70
2018-01-05T01:51:43.920Z,1.23
2018-01-05T01:54:26.743Z,1.00
2018-01-05T01:57:09.323Z,0.97
2018-01-05T01:59:51.952Z,1.30
2018-01-05T02:02:34.902Z,1.10
2018-01-05T02:05:17.414Z,1.40
2018-01-05T02:08:00.325Z,1.10
2018-01-05T02:10:42.836Z,1.07
2018-01-05T02:13:25.546Z,1.80
2018-01-05T02:16:10.885Z,1.20
2018-01-05T02:18:54.426Z,1.23
2018-01-05T02:21:36.863Z,1.30
2018-01-05T02:24:19.932Z,1.20
2018-01-05T02:27:02.614Z,1.20
2018-01-05T02:29:52.338Z,1.10
2018-01-05T02:32:34.828Z,1.30
2018-01-05T02:35:17.611Z,1.30
2018-01-05T02:38:00.435Z,1.07
2018-01-05T02:40:42.838Z,1.13
2018-01-05T02:43:25.476Z,1.30
2018-01-05T02:46:07.939Z,1.10
2018-01-05T02:48:50.720Z,1.10
2018-01-05T02:51:33.217Z,1.47
2018-01-05T02:54:16.099Z,1.17
2018-01-05T02:56:59.277Z,1.37
2018-01-05T02:59:42.164Z,1.50
2018-01-05T03:02:24.884Z,1.33
2018-01-05T03:05:07.441Z,1.40
2018-01-05T03:07:50.681Z,1.37
2018-01-05T03:10:33.586Z,1.10
2018-01-05T03:13:16.746Z,1.30
2018-01-05T03:15:58.955Z,1.20
2018-01-05T03:18:41.765Z,1.50
2018-01-05T03:21:31.473Z,1.00
2018-01-05T03:24:14.488Z,1.10
2018-01-05T03:26:57.329Z,1.00
2018-01-05T03:29:40.172Z,1.47
2018-01-05T03:32:23.679Z,1.17
2018-01-05T03:35:05.809Z,1.10
2018-01-05T03:37:48.542Z,1.30
2018-01-05T03:40:31.130Z,1.30
2018-01-05T03:43:13.873Z,1.30
2018-01-05T03:45:56.672Z,1.27
2018-01-05T03:48:40.376Z,1.30
2018-01-05T03:51:22.881Z,1.00
2018-01-05T03:54:05.580Z,1.40
2018-01-05T03:56:48.246Z,1.00
2018-01-05T03:59:30.841Z,1.10
2018-01-05T04:02:13.424Z,1.40
2018-01-05T04:04:56.042Z,1.20
2018-01-05T04:07:38.658Z,1.43
2018-01-05T04:10:21.254Z,1.37
2018-01-05T04:13:05.481Z,1.30
2018-01-05T04:15:48.419Z,1.40
2018-01-05T04:18:31.057Z,1.30
2018-01-05T04:21:13.701Z,1.07
2018-01-05T04:23:56.308Z,1.60
2018-01-05T04:26:39.010Z,1.47
2018-01-05T04:29:21.714Z,1.87
2018-01-05T04:32:04.308Z,1.70
2018-01-05T04:34:47.326Z,1.73
2018-01-05T04:37:29.746Z,1.50
2018-01-05T04:40:12.455Z,1.20
2018-01-05T04:42:55.485Z,1.40
2018-01-05T04:45:38.381Z,1.33
2018-01-05T04:48:21.095Z,1.80
2018-01-05T04:51:03.717Z,1.90
2018-01-05T04:53:46.663Z,2.10
2018-01-05T04:56:29.370Z,2.17
2018-01-05T04:59:11.901Z,1.60
2018-01-05T05:01:54.799Z,1.70
2018-01-05T05:04:37.433Z,1.30
2018-01-05T05:07:19.973Z,1.30
2018-01-05T05:10:03.871Z,1.60
2018-01-05T05:12:46.425Z,1.40
2018-01-05T05:15:32.755Z,1.37
2018-01-05T05:18:28.269Z,1.30
2018-01-05T05:21:11.093Z,2.17
2018-01-05T05:23:53.625Z,1.70
2018-01-05T05:26:36.089Z,2.77
2018-01-05T05:29:18.706Z,1.70
2018-01-05T05:32:01.214Z,1.60
2018-01-05T05:34:43.737Z,1.70
2018-01-05T05:37:26.382Z,2.30
2018-01-05T05:40:08.947Z,3.20
2018-01-05T05:42:52.353Z,2.63
2018-01-05T05:45:35.245Z,2.63
2018-01-05T05:48:18.074Z,1.90
2018-01-05T05:51:01.117Z,2.27
2018-01-05T05:53:44.001Z,1.37
2018-01-05T05:56:29.525Z,1.80
2018-01-05T05:59:12.347Z,1.70
2018-01-05T06:02:01.457Z,1.40
2018-01-05T06:04:44.113Z,1.70
2018-01-05T06:07:26.567Z,1.57
2018-01-05T06:10:09.333Z,1.77
2018-01-05T06:12:51.853Z,2.07
2018-01-05T06:15:41.029Z,1.60
2018-01-05T06:18:23.852Z,1.90
2018-01-05T06:21:06.478Z,2.10
2018-01-05T06:23:48.970Z,2.87
2018-01-05T06:26:33.479Z,2.23
2018-01-05T06:29:16.950Z,2.50
2018-01-05T06:31:59.914Z,1.93
2018-01-05T06:34:44.145Z,1.53
2018-01-05T06:37:26.874Z,1.70
2018-01-05T06:40:09.484Z,2.10
2018-01-05T06:42:52.638Z,2.30
2018-01-05T06:45:34.744Z,1.80
2018-01-05T06:48:28.113Z,1.90
2018-01-05T06:51:10.996Z,2.10
2018-01-05T06:53:53.630Z,1.80
2018-01-05T06:56:36.331Z,2.40
2018-01-05T06:59:19.389Z,2.07
2018-01-05T07:02:02.110Z,1.90
2018-01-05T07:04:44.825Z,1.70
2018-01-05T07:07:28.580Z,1.60
2018-01-05T07:10:11.478Z,2.27
2018-01-05T07:12:54.310Z,1.93
2018-01-05T07:15:37.106Z,2.10
2018-01-05T07:18:26.977Z,1.90
2018-01-05T07:21:09.434Z,1.70
2018-01-05T07:23:52.433Z,1.90
2018-01-05T07:26:34.948Z,3.03
2018-01-05T07:29:18.204Z,2.00
2018-01-05T07:32:07.282Z,1.47
2018-01-05T07:34:49.805Z,2.00
2018-01-05T07:37:32.407Z,1.50
2018-01-05T07:40:14.974Z,1.73
2018-01-05T07:42:57.678Z,1.80
2018-01-05T07:45:40.402Z,1.73
2018-01-05T07:48:23.035Z,1.67
2018-01-05T07:51:06.261Z,1.80
2018-01-05T07:53:49.171Z,1.80
2018-01-05T07:56:31.858Z,1.70
2018-01-05T07:59:14.295Z,1.90
2018-01-05T08:01:58.735Z,1.67
2018-01-05T08:04:44.537Z,1.90
2018-01-05T08:07:27.315Z,1.83
2018-01-05T08:10:10.177Z,1.80
2018-01-05T08:12:53.329Z,1.80
2018-01-05T08:15:37.758Z,1.53
2018-01-05T08:18:24.010Z,1.90
2018-01-05T08:21:06.506Z,1.60
2018-01-05T08:23:49.326Z,1.77
2018-01-05T08:26:32.144Z,1.70
2018-01-05T08:29:14.840Z,2.00
2018-01-05T08:31:57.827Z,1.70
2018-01-05T08:34:40.295Z,1.77
2018-01-05T08:37:22.966Z,1.90
2018-01-05T08:40:05.481Z,1.97
2018-01-05T08:42:48.027Z,1.70
2018-01-05T08:45:31.459Z,1.77
2018-01-05T08:48:20.417Z,2.10
2018-01-05T08:51:03.072Z,1.60
2018-01-05T08:56:35.382Z,1.70
2018-01-05T08:59:17.791Z,2.17
2018-01-05T09:02:00.311Z,1.73
2018-01-05T09:04:42.881Z,2.30
2018-01-05T09:07:25.796Z,2.10
2018-01-05T09:10:14.362Z,2.20
2018-01-05T09:12:58.495Z,1.80
2018-01-05T09:15:41.445Z,2.33
2018-01-05T09:18:30.110Z,2.10
2018-01-05T09:21:12.607Z,2.27
2018-01-05T09:24:01.218Z,2.37
2018-01-05T09:26:43.821Z,2.57
2018-01-05T09:29:26.391Z,2.53
2018-01-05T09:32:09.207Z,2.00
2018-01-05T09:34:51.819Z,1.63
2018-01-05T09:37:47.342Z,2.40
2018-01-05T09:40:40.890Z,2.20
2018-01-05T09:43:24.350Z,2.23
2018-01-05T09:46:07.375Z,1.90
2018-01-05T09:48:49.956Z,2.33
2018-01-05T09:51:32.910Z,2.57
2018-01-05T09:54:15.134Z,2.20
2018-01-05T09:56:58.293Z,2.00
2018-01-05T09:59:41.158Z,1.63
2018-01-05T10:02:23.878Z,2.40
2018-01-05T10:05:06.641Z,1.80
2018-01-05T10:07:49.104Z,1.90
2018-01-05T10:10:31.984Z,1.83
2018-01-05T10:13:18.370Z,1.87
2018-01-05T10:16:01.547Z,1.80
2018-01-05T10:18:49.980Z,2.10
2018-01-05T10:21:32.606Z,2.33
2018-01-05T10:24:28.915Z,1.67
2018-01-05T10:27:11.624Z,2.07
2018-01-05T10:29:54.242Z,2.27
2018-01-05T10:32:37.274Z,2.90
2018-01-05T10:35:22.421Z,2.10
2018-01-05T10:38:06.263Z,2.20
2018-01-05T10:40:48.974Z,1.70
2018-01-05T10:43:31.591Z,2.27
2018-01-05T10:46:14.084Z,2.17
2018-01-05T10:48:56.658Z,2.33
2018-01-05T10:51:39.233Z,2.70
2018-01-05T10:54:21.929Z,2.27
2018-01-05T10:57:04.454Z,2.00
2018-01-05T10:59:47.258Z,2.53
2018-01-05T11:02:29.742Z,2.23
2018-01-05T11:05:12.390Z,2.20
2018-01-05T11:07:54.865Z,2.20
2018-01-05T11:10:37.598Z,2.13
2018-01-05T11:13:20.169Z,2.50
2018-01-05T11:16:02.827Z,3.00
2018-01-05T11:18:45.531Z,2.47
2018-01-05T11:21:28.113Z,3.00
2018-01-05T11:24:10.667Z,3.43
2018-01-05T11:26:53.349Z,3.13
2018-01-05T11:29:35.894Z,2.10
2018-01-05T11:32:18.339Z,1.60
2018-01-05T11:35:01.078Z,1.43
2018-01-05T11:37:49.752Z,1.80
2018-01-05T11:40:32.309Z,2.53
2018-01-05T11:43:15.798Z,2.83
2018-01-05T11:45:58.667Z,1.70
2018-01-05T11:48:41.333Z,1.73
2018-01-05T11:51:23.771Z,2.37
2018-01-05T11:54:06.490Z,1.90
2018-01-05T11:56:49.100Z,2.57
2018-01-05T11:59:31.562Z,1.83
2018-01-05T12:02:14.322Z,2.97
2018-01-05T12:04:57.017Z,3.23
2018-01-05T12:07:39.701Z,2.87
2018-01-05T12:10:22.960Z,2.77
2018-01-05T12:13:05.157Z,2.20
2018-01-05T12:15:47.714Z,1.90
2018-01-05T12:18:34.174Z,1.87
2018-01-05T12:21:17.081Z,1.60
2018-01-05T12:23:59.597Z,3.10
2018-01-05T12:26:42.406Z,2.10
2018-01-05T12:29:25.191Z,2.60
2018-01-05T12:32:07.868Z,2.33
2018-01-05T12:34:50.500Z,3.13
2018-01-05T12:37:32.882Z,2.53
2018-01-05T12:40:15.619Z,2.37
2018-01-05T12:42:59.074Z,2.20
2018-01-05T12:45:42.055Z,2.50
2018-01-05T12:48:31.014Z,2.60
2018-01-05T12:51:13.641Z,2.40
2018-01-05T12:53:56.318Z,3.07
2018-01-05T12:56:38.814Z,2.90
2018-01-05T12:59:28.399Z,2.70
2018-01-05T13:02:11.799Z,2.57
2018-01-05T13:04:54.107Z,2.33
2018-01-05T13:07:36.735Z,3.00
2018-01-05T13:10:30.960Z,2.70
2018-01-05T13:13:13.917Z,2.80
2018-01-05T13:15:56.689Z,2.20
2018-01-05T13:18:40.598Z,2.87
2018-01-05T13:21:23.210Z,2.37
2018-01-05T13:24:09.604Z,2.50
2018-01-05T13:26:52.438Z,2.43
2018-01-05T13:29:42.679Z,2.33
2018-01-05T13:32:25.424Z,2.30
2018-01-05T13:35:08.065Z,2.27
2018-01-05T13:37:50.821Z,2.27
2018-01-05T13:40:33.438Z,2.77
2018-01-05T13:43:16.065Z,2.57
2018-01-05T13:45:58.741Z,2.30
2018-01-05T13:48:41.443Z,2.30
2018-01-05T13:51:24.070Z,2.50
2018-01-05T13:54:06.848Z,2.40
2018-01-05T13:56:50.320Z,2.30
2018-01-05T13:59:33.132Z,2.40
2018-01-05T14:02:16.131Z,2.00
2018-01-05T14:04:58.237Z,2.30
2018-01-05T14:07:41.002Z,2.60
2018-01-05T14:10:23.734Z,1.83
2018-01-05T14:13:06.000Z,1.60
2018-01-05T14:15:48.526Z,2.10
2018-01-05T14:18:31.081Z,2.07
2018-01-05T14:21:13.861Z,1.80
2018-01-05T14:23:56.751Z,1.90
2018-01-05T14:26:39.546Z,2.10
2018-01-05T14:29:25.305Z,1.47
2018-01-05T14:32:07.796Z,2.20
2018-01-05T14:34:50.305Z,2.30
2018-01-05T14:37:32.854Z,2.03
2018-01-05T14:40:19.357Z,2.57
2018-01-05T14:43:02.290Z,1.90
2018-01-05T14:45:44.877Z,2.40
2018-01-05T14:48:27.582Z,2.47
2018-01-05T14:51:11.019Z,2.20
2018-01-05T14:53:53.812Z,2.10
2018-01-05T14:56:36.438Z,1.87
2018-01-05T14:59:19.063Z,2.03
2018-01-05T15:02:01.517Z,1.97
2018-01-05T15:04:44.154Z,1.77
2018-01-05T15:07:27.191Z,1.67
2018-01-05T15:10:09.996Z,1.53
2018-01-05T15:13:01.379Z,1.83
2018-01-05T15:15:51.984Z,1.80
2018-01-05T15:18:34.851Z,1.77
2018-01-05T15:21:17.314Z,1.40
2018-01-05T15:24:00.097Z,1.60
2018-01-05T15:26:43.352Z,1.30
2018-01-05T15:29:28.418Z,1.80
2018-01-05T15:32:10.848Z,2.10
2018-01-05T15:34:53.291Z,1.80
2018-01-05T15:37:35.931Z,1.60
2018-01-05T15:40:18.600Z,2.17
2018-01-05T15:43:01.082Z,1.70
2018-01-05T15:45:43.807Z,1.50
2018-01-05T15:48:26.313Z,1.53
2018-01-05T15:51:09.207Z,1.70
2018-01-05T15:54:00.516Z,1.40
2018-01-05T15:56:43.438Z,1.40
2018-01-05T15:59:25.842Z,1.30
2018-01-05T16:02:08.406Z,1.43
2018-01-05T16:04:51.782Z,1.67
2018-01-05T16:07:34.565Z,1.37
2018-01-05T16:10:17.225Z,1.60
2018-01-05T16:12:59.794Z,1.50
2018-01-05T16:15:46.337Z,1.60
2018-01-05T16:18:29.368Z,1.60
2018-01-05T16:21:11.827Z,1.20
2018-01-05T16:23:54.526Z,1.50
2018-01-05T16:26:37.172Z,1.30
2018-01-05T16:29:19.701Z,1.50
2018-01-05T16:32:02.224Z,1.30
2018-01-05T16:34:44.970Z,1.40
2018-01-05T16:37:27.545Z,1.70
2018-01-05T16:40:10.211Z,1.30
2018-01-05T16:42:52.910Z,1.60
2018-01-05T16:45:38.576Z,1.30
2018-01-05T16:48:20.989Z,1.60
2018-01-05T16:51:03.627Z,2.10
2018-01-05T16:53:46.036Z,1.90
2018-01-05T16:56:34.820Z,2.00
2018-01-05T16:59:17.215Z,2.73
2018-01-05T17:01:59.671Z,1.83
2018-01-05T17:04:42.225Z,2.00
2018-01-05T17:07:24.829Z,2.00
2018-01-05T17:10:07.754Z,1.80
2018-01-05T17:12:50.006Z,1.67
2018-01-05T17:15:32.729Z,1.57
2018-01-05T17:18:15.486Z,1.50
2018-01-05T17:20:58.090Z,1.60
2018-01-05T17:23:40.857Z,1.60
2018-01-05T17:26:23.395Z,1.47
2018-01-05T17:29:06.023Z,1.77
2018-01-05T17:31:49.073Z,1.97
2018-01-05T17:34:31.361Z,1.47
2018-01-05T17:37:14.597Z,1.40
2018-01-05T17:39:58.263Z,1.77
2018-01-05T17:42:41.023Z,1.47
2018-01-05T17:45:23.574Z,1.40
2018-01-05T17:48:13.907Z,1.87
2018-01-05T17:50:58.626Z,1.53
2018-01-05T17:53:41.531Z,1.70
2018-01-05T17:56:24.334Z,1.50
2018-01-05T17:59:07.070Z,1.40
2018-01-05T18:01:49.508Z,1.30
2018-01-05T18:04:31.675Z,1.30
2018-01-05T18:07:14.092Z,1.30
2018-01-05T18:10:09.374Z,1.23
2018-01-05T18:12:52.236Z,1.37
2018-01-05T18:15:36.632Z,1.50
2018-01-05T18:18:20.322Z,1.60
2018-01-05T18:21:02.895Z,1.83
2018-01-05T18:23:45.443Z,1.33
2018-01-05T18:26:28.473Z,1.70
2018-01-05T18:29:12.165Z,1.50
2018-01-05T18:31:54.937Z,1.30
2018-01-05T18:34:37.646Z,1.30
2018-01-05T18:37:20.010Z,1.20
2018-01-05T18:40:10.436Z,1.50
2018-01-05T18:42:54.019Z,1.40
2018-01-05T18:45:36.734Z,1.77
2018-01-05T18:48:19.301Z,1.37
2018-01-05T18:51:02.011Z,1.63
2018-01-05T18:53:44.683Z,2.00
2018-01-05T18:56:39.426Z,1.60
2018-01-05T18:59:24.510Z,1.50
2018-01-05T19:02:07.354Z,1.47
2018-01-05T19:04:49.943Z,1.47
2018-01-05T19:07:32.453Z,1.70
2018-01-05T19:10:14.986Z,1.33
2018-01-05T19:12:58.561Z,1.67
2018-01-05T19:15:41.062Z,2.10
2018-01-05T19:18:31.002Z,1.40
2018-01-05T19:21:13.487Z,1.50
2018-01-05T19:23:56.322Z,1.53
2018-01-05T19:26:38.987Z,2.00
2018-01-05T19:29:23.194Z,1.90
2018-01-05T19:32:06.297Z,1.70
2018-01-05T19:34:51.018Z,2.13
2018-01-05T19:37:33.326Z,1.70
2018-01-05T19:40:17.564Z,1.70
2018-01-05T19:43:00.596Z,1.77
2018-01-05T19:45:43.462Z,2.00
2018-01-05T19:48:26.075Z,1.80
2018-01-05T19:51:08.491Z,1.83
2018-01-05T19:53:51.002Z,2.27
2018-01-05T19:56:34.490Z,2.20
2018-01-05T19:59:17.486Z,1.80
2018-01-05T20:02:00.072Z,2.30
2018-01-05T20:04:42.810Z,2.30
2018-01-05T20:07:31.375Z,1.90
2018-01-05T20:10:13.651Z,2.80
2018-01-05T20:12:56.394Z,2.30
2018-01-05T20:15:38.659Z,2.10
2018-01-05T20:18:22.942Z,2.23
2018-01-05T20:21:05.907Z,2.07
2018-01-05T20:23:48.320Z,2.30
2018-01-05T20:26:32.047Z,1.70
2018-01-05T20:29:14.465Z,2.00
2018-01-05T20:31:59.943Z,2.73
2018-01-05T20:34:43.077Z,2.43
2018-01-05T20:37:27.303Z,1.97
2018-01-05T20:40:17.049Z,2.10
2018-01-05T20:43:00.103Z,2.17
2018-01-05T20:45:42.718Z,1.93
2018-01-05T20:48:24.990Z,2.10
2018-01-05T20:51:07.952Z,1.93
2018-01-05T20:53:50.488Z,2.27
2018-01-05T20:56:33.113Z,2.07
2018-01-05T20:59:15.604Z,2.03
2018-01-05T21:01:58.366Z,2.23
2018-01-05T21:04:41.482Z,2.00
2018-01-05T21:07:23.640Z,2.37
2018-01-05T21:10:06.112Z,2.23
2018-01-05T21:12:48.918Z,1.80
2018-01-05T21:15:31.253Z,3.83
2018-01-05T21:18:13.918Z,3.50
2018-01-05T21:20:56.490Z,2.57
2018-01-05T21:33:46.648Z,2.53
2018-01-05T21:36:34.893Z,2.43
2018-01-05T21:39:18.188Z,2.40
2018-01-05T21:42:11.525Z,2.17
2018-01-05T21:44:54.186Z,2.13
2018-01-05T21:47:37.927Z,2.70
2018-01-05T21:50:27.002Z,2.57
2018-01-05T21:53:11.041Z,2.43
2018-01-05T21:56:06.667Z,2.67
2018-01-05T21:58:49.022Z,2.70
2018-01-05T22:01:31.694Z,2.93
2018-01-05T22:04:14.225Z,2.73
2018-01-05T22:06:56.723Z,2.27
2018-01-05T22:09:39.337Z,2.60
2018-01-05T22:12:21.965Z,2.53
2018-01-05T22:15:04.447Z,2.30
2018-01-05T22:17:53.203Z,2.83
2018-01-05T22:20:35.614Z,2.57
2018-01-05T22:23:18.265Z,2.37
2018-01-05T22:26:01.042Z,2.47
2018-01-05T22:28:44.408Z,3.33
2018-01-05T22:31:27.453Z,2.77
2018-01-05T22:34:09.781Z,2.83
2018-01-05T22:36:52.249Z,2.47
2018-01-05T22:39:34.900Z,3.00
2018-01-05T22:42:28.961Z,2.70
2018-01-05T22:45:11.886Z,2.57
2018-01-05T22:47:54.397Z,2.57
2018-01-05T22:50:42.824Z,2.77
2018-01-05T22:53:25.466Z,2.50
2018-01-05T22:56:08.307Z,2.30
2018-01-05T22:58:50.734Z,2.53
2018-01-05T23:01:33.354Z,2.33
2018-01-05T23:04:15.842Z,2.20
2018-01-05T23:06:58.428Z,2.27
2018-01-05T23:09:41.059Z,2.00
2018-01-05T23:12:23.646Z,2.00
2018-01-05T23:15:06.376Z,2.73
2018-01-05T23:17:49.074Z,2.23
2018-01-05T23:20:31.615Z,2.57
2018-01-05T23:23:21.378Z,2.00
2018-01-05T23:26:03.890Z,2.03
2018-01-05T23:28:46.612Z,2.00
2018-01-05T23:31:29.165Z,1.90
2018-01-05T23:34:11.654Z,1.87
2018-01-05T23:36:54.338Z,1.90
2018-01-05T23:39:36.992Z,1.70
2018-01-05T23:42:19.970Z,2.17
2018-01-05T23:45:02.578Z,2.10
2018-01-05T23:47:45.126Z,1.83
2018-01-05T23:50:27.819Z,1.80
2018-01-05T23:53:10.311Z,1.87
2018-01-05T23:55:59.946Z,1.97
2018-01-05T23:58:42.337Z,1.80
